• Join FlightAware (Why Join?)
  • Login
  • US Flag 
04:01AM EST


 

Airport Tracker/Info


-or-


 

Live Flight TrackerFlight Track Log ✈ QXE134 ✈ 19-Feb-2012 ✈ KSEA - KEAT

Flight Track Log - Related Links

Times and Time Zones

All times are in EST time to prevent confusion due to time zone crossing. See the QXE134 flight status page for this flight to view local times or setup timezone preferences in your user account.

Time Position Orientation Groundspeed Altitude Reporting Facility
EST Latitude Longitude Course Direction KTS MPH feet Rate Location/Type
02:03AM 47.4392 -122.3083 162° South 142 163 1,600  Level Seattle Center
02:03AM 47.4203 -122.2992 144° Southeast 152 175 2,100 1,620 Climbing Seattle Center
02:04AM 47.3661 -122.2406 75° East 236 272 4,300 2,160 Climbing Seattle Center
02:05AM 47.3833 -122.1464 79° East 244 281 6,500 2,160 Climbing Seattle Center
02:06AM 47.3967 -122.0472 82° East 249 287 8,700 1,980 Climbing Seattle Center
02:07AM 47.4069 -121.9372 82° East 271 312 10,600 1,620 Climbing Seattle Center
02:08AM 47.4189 -121.8181 82° East 300 345 12,000 1,140 Climbing Seattle Center
02:09AM 47.4314 -121.6881 93° East 325 374 12,900 480 Climbing Seattle Center
02:10AM 47.4267 -121.5506 91° East 341 392 13,000  Climbing Seattle Center
02:11AM 47.4253 -121.4161 91° East 334 384 13,000  Level Seattle Center
02:12AM 47.4244 -121.2875 91° East 321 369 13,000  Level Seattle Center
02:13AM 47.4228 -121.1611 92° East 313 360 13,000  Level Seattle Center
02:14AM 47.4200 -121.0372 92° East 307 353 13,000  Level Seattle Center
02:15AM 47.4178 -120.9164 95° East 299 344 13,000  Level Seattle Center
02:16AM 47.4111 -120.7931 72° East 299 344 13,000 -360 Level Seattle Center
02:17AM 47.4342 -120.6883 21° North 277 319 12,300 -1,620 Descending Seattle Center
02:18AM 47.5175 -120.6411 28° Northeast 270 311 9,800 -1,620 Descending Seattle Center
02:19AM 47.5811 -120.5917 76° East 267 307 9,100 -1,020 Descending Seattle Center
02:20AM 47.5956 -120.5058 134° Southeast 257 296 7,800 -1,440 Descending Seattle Center
02:21AM 47.5492 -120.4339 136° Southeast 242 278 6,300 -1,440 Descending Seattle Center
02:22AM 47.5067 -120.3733 135° Southeast 227 261 4,900 -1,020 Descending Seattle Center
02:23AM 47.4697 -120.3183 135° Southeast 220 253 4,300 -600 Descending Seattle Center